sensor_id;sensor_type;location;lat;lon;timestamp;P1;durP1;ratioP1;P2;durP2;ratioP2
76693;SDS011;69667;52.136;5.424;2023-10-09T00:00:34;15.10;;;7.03;;
76693;SDS011;69667;52.136;5.424;2023-10-09T00:03:18;12.95;;;6.50;;
76693;SDS011;69667;52.136;5.424;2023-10-09T00:08:15;16.73;;;6.15;;
76693;SDS011;69667;52.136;5.424;2023-10-09T00:10:49;17.73;;;7.40;;
76693;SDS011;69667;52.136;5.424;2023-10-09T00:13:21;15.32;;;7.10;;
76693;SDS011;69667;52.136;5.424;2023-10-09T00:16:00;18.40;;;7.45;;
76693;SDS011;69667;52.136;5.424;2023-10-09T00:18:40;17.38;;;7.22;;
76693;SDS011;69667;52.136;5.424;2023-10-09T00:21:14;15.73;;;6.22;;
76693;SDS011;69667;52.136;5.424;2023-10-09T00:23:47;18.35;;;7.07;;
76693;SDS011;69667;52.136;5.424;2023-10-09T00:26:26;14.07;;;6.82;;
76693;SDS011;69667;52.136;5.424;2023-10-09T00:28:57;17.10;;;7.00;;
76693;SDS011;69667;52.136;5.424;2023-10-09T00:31:25;16.08;;;7.18;;
76693;SDS011;69667;52.136;5.424;2023-10-09T00:33:57;13.70;;;6.22;;
76693;SDS011;69667;52.136;5.424;2023-10-09T00:36:34;19.23;;;7.85;;
76693;SDS011;69667;52.136;5.424;2023-10-09T00:39:18;15.13;;;7.60;;
76693;SDS011;69667;52.136;5.424;2023-10-09T00:42:06;20.60;;;8.00;;
76693;SDS011;69667;52.136;5.424;2023-10-09T00:44:39;15.80;;;6.45;;
76693;SDS011;69667;52.136;5.424;2023-10-09T00:47:10;16.70;;;7.05;;
76693;SDS011;69667;52.136;5.424;2023-10-09T00:49:52;15.68;;;6.97;;
76693;SDS011;69667;52.136;5.424;2023-10-09T00:52:29;19.48;;;6.72;;
76693;SDS011;69667;52.136;5.424;2023-10-09T00:55:21;14.95;;;6.32;;
76693;SDS011;69667;52.136;5.424;2023-10-09T00:58:10;18.48;;;6.60;;
76693;SDS011;69667;52.136;5.424;2023-10-09T01:00:41;16.83;;;7.22;;
76693;SDS011;69667;52.136;5.424;2023-10-09T01:03:14;20.60;;;8.15;;
76693;SDS011;69667;52.136;5.424;2023-10-09T01:05:48;14.63;;;6.80;;
76693;SDS011;69667;52.136;5.424;2023-10-09T01:08:38;15.27;;;7.82;;
76693;SDS011;69667;52.136;5.424;2023-10-09T01:11:08;16.00;;;7.35;;
76693;SDS011;69667;52.136;5.424;2023-10-09T01:13:56;17.48;;;8.23;;
76693;SDS011;69667;52.136;5.424;2023-10-09T01:16:44;16.45;;;7.03;;
76693;SDS011;69667;52.136;5.424;2023-10-09T01:19:14;18.65;;;7.65;;
76693;SDS011;69667;52.136;5.424;2023-10-09T01:21:52;16.13;;;6.43;;
76693;SDS011;69667;52.136;5.424;2023-10-09T01:24:20;15.68;;;7.55;;
76693;SDS011;69667;52.136;5.424;2023-10-09T01:26:49;16.83;;;6.45;;
76693;SDS011;69667;52.136;5.424;2023-10-09T01:29:22;14.43;;;6.22;;
76693;SDS011;69667;52.136;5.424;2023-10-09T01:31:55;16.48;;;7.47;;
76693;SDS011;69667;52.136;5.424;2023-10-09T01:34:28;15.50;;;7.45;;
76693;SDS011;69667;52.136;5.424;2023-10-09T01:37:17;13.65;;;5.75;;
76693;SDS011;69667;52.136;5.424;2023-10-09T01:39:53;18.17;;;8.02;;
76693;SDS011;69667;52.136;5.424;2023-10-09T01:42:25;15.07;;;6.90;;
76693;SDS011;69667;52.136;5.424;2023-10-09T01:45:12;11.13;;;5.43;;
76693;SDS011;69667;52.136;5.424;2023-10-09T01:47:46;16.73;;;7.10;;
76693;SDS011;69667;52.136;5.424;2023-10-09T01:50:25;17.58;;;6.72;;
76693;SDS011;69667;52.136;5.424;2023-10-09T01:53:02;13.88;;;6.72;;
76693;SDS011;69667;52.136;5.424;2023-10-09T01:55:32;14.18;;;6.50;;
76693;SDS011;69667;52.136;5.424;2023-10-09T01:58:02;18.58;;;8.27;;
76693;SDS011;69667;52.136;5.424;2023-10-09T02:00:43;15.13;;;6.50;;
76693;SDS011;69667;52.136;5.424;2023-10-09T02:03:17;17.08;;;6.47;;
76693;SDS011;69667;52.136;5.424;2023-10-09T02:05:46;15.02;;;6.55;;
76693;SDS011;69667;52.136;5.424;2023-10-09T02:08:14;14.93;;;6.25;;
76693;SDS011;69667;52.136;5.424;2023-10-09T02:10:44;14.07;;;6.72;;
76693;SDS011;69667;52.136;5.424;2023-10-09T02:13:15;14.77;;;6.22;;
76693;SDS011;69667;52.136;5.424;2023-10-09T02:15:46;17.17;;;7.32;;
76693;SDS011;69667;52.136;5.424;2023-10-09T02:18:18;14.82;;;6.60;;
76693;SDS011;69667;52.136;5.424;2023-10-09T02:20:51;14.00;;;6.93;;
76693;SDS011;69667;52.136;5.424;2023-10-09T02:23:39;16.02;;;6.30;;
76693;SDS011;69667;52.136;5.424;2023-10-09T02:26:18;14.93;;;7.03;;
76693;SDS011;69667;52.136;5.424;2023-10-09T02:28:54;14.90;;;6.50;;
76693;SDS011;69667;52.136;5.424;2023-10-09T02:31:27;13.45;;;6.63;;
76693;SDS011;69667;52.136;5.424;2023-10-09T02:34:08;11.98;;;6.00;;
76693;SDS011;69667;52.136;5.424;2023-10-09T02:36:38;18.05;;;6.60;;
76693;SDS011;69667;52.136;5.424;2023-10-09T02:39:17;12.45;;;5.97;;
76693;SDS011;69667;52.136;5.424;2023-10-09T02:41:55;15.82;;;6.28;;
76693;SDS011;69667;52.136;5.424;2023-10-09T02:44:39;14.07;;;6.45;;
76693;SDS011;69667;52.136;5.424;2023-10-09T02:47:13;13.32;;;5.70;;
76693;SDS011;69667;52.136;5.424;2023-10-09T02:49:47;13.70;;;6.38;;
76693;SDS011;69667;52.136;5.424;2023-10-09T02:52:19;14.18;;;6.50;;
76693;SDS011;69667;52.136;5.424;2023-10-09T02:54:52;12.07;;;6.40;;
76693;SDS011;69667;52.136;5.424;2023-10-09T02:57:27;13.65;;;6.10;;
76693;SDS011;69667;52.136;5.424;2023-10-09T03:00:04;13.77;;;6.43;;
76693;SDS011;69667;52.136;5.424;2023-10-09T03:02:36;12.43;;;6.07;;
76693;SDS011;69667;52.136;5.424;2023-10-09T03:05:07;11.15;;;5.38;;
76693;SDS011;69667;52.136;5.424;2023-10-09T03:07:39;13.77;;;6.50;;
76693;SDS011;69667;52.136;5.424;2023-10-09T03:10:08;10.95;;;5.68;;
76693;SDS011;69667;52.136;5.424;2023-10-09T03:12:37;14.18;;;5.95;;
76693;SDS011;69667;52.136;5.424;2023-10-09T03:15:06;13.48;;;6.35;;
76693;SDS011;69667;52.136;5.424;2023-10-09T03:17:36;15.13;;;6.22;;
76693;SDS011;69667;52.136;5.424;2023-10-09T03:20:05;9.35;;;4.93;;
76693;SDS011;69667;52.136;5.424;2023-10-09T03:25:08;13.30;;;5.75;;
76693;SDS011;69667;52.136;5.424;2023-10-09T03:27:40;14.52;;;6.07;;
76693;SDS011;69667;52.136;5.424;2023-10-09T03:30:15;11.02;;;5.13;;
76693;SDS011;69667;52.136;5.424;2023-10-09T03:32:51;13.23;;;5.50;;
76693;SDS011;69667;52.136;5.424;2023-10-09T03:35:20;11.60;;;5.72;;
76693;SDS011;69667;52.136;5.424;2023-10-09T03:37:55;11.38;;;6.32;;
76693;SDS011;69667;52.136;5.424;2023-10-09T03:40:27;12.35;;;5.65;;
76693;SDS011;69667;52.136;5.424;2023-10-09T03:42:56;11.98;;;5.70;;
76693;SDS011;69667;52.136;5.424;2023-10-09T03:45:24;15.00;;;6.40;;
76693;SDS011;69667;52.136;5.424;2023-10-09T03:47:54;16.48;;;6.20;;
76693;SDS011;69667;52.136;5.424;2023-10-09T03:50:31;12.10;;;5.28;;
76693;SDS011;69667;52.136;5.424;2023-10-09T03:53:04;12.13;;;5.53;;
76693;SDS011;69667;52.136;5.424;2023-10-09T03:55:38;10.02;;;5.18;;
76693;SDS011;69667;52.136;5.424;2023-10-09T03:58:07;12.25;;;5.22;;
76693;SDS011;69667;52.136;5.424;2023-10-09T04:00:39;9.93;;;4.88;;
76693;SDS011;69667;52.136;5.424;2023-10-09T04:03:14;11.25;;;5.78;;
76693;SDS011;69667;52.136;5.424;2023-10-09T04:05:43;8.05;;;4.32;;
76693;SDS011;69667;52.136;5.424;2023-10-09T04:08:12;9.68;;;4.60;;
76693;SDS011;69667;52.136;5.424;2023-10-09T04:10:43;8.60;;;4.70;;
76693;SDS011;69667;52.136;5.424;2023-10-09T04:13:21;8.52;;;4.70;;
76693;SDS011;69667;52.136;5.424;2023-10-09T04:15:50;12.85;;;5.22;;
76693;SDS011;69667;52.136;5.424;2023-10-09T04:18:21;9.38;;;5.07;;
76693;SDS011;69667;52.136;5.424;2023-10-09T04:20:55;8.20;;;4.47;;
76693;SDS011;69667;52.136;5.424;2023-10-09T04:23:43;11.10;;;5.68;;
76693;SDS011;69667;52.136;5.424;2023-10-09T04:26:29;9.50;;;4.80;;
76693;SDS011;69667;52.136;5.424;2023-10-09T04:29:02;8.88;;;4.22;;
76693;SDS011;69667;52.136;5.424;2023-10-09T04:31:30;9.93;;;4.22;;
76693;SDS011;69667;52.136;5.424;2023-10-09T04:36:45;8.35;;;4.05;;
76693;SDS011;69667;52.136;5.424;2023-10-09T04:39:14;8.27;;;3.88;;
76693;SDS011;69667;52.136;5.424;2023-10-09T04:42:02;6.97;;;4.07;;
76693;SDS011;69667;52.136;5.424;2023-10-09T04:44:53;7.82;;;4.38;;
76693;SDS011;69667;52.136;5.424;2023-10-09T04:47:34;8.50;;;4.40;;
76693;SDS011;69667;52.136;5.424;2023-10-09T04:50:10;9.15;;;4.45;;
76693;SDS011;69667;52.136;5.424;2023-10-09T04:52:41;9.18;;;4.10;;
76693;SDS011;69667;52.136;5.424;2023-10-09T04:55:10;9.02;;;3.95;;
76693;SDS011;69667;52.136;5.424;2023-10-09T04:57:42;7.97;;;3.67;;
76693;SDS011;69667;52.136;5.424;2023-10-09T05:00:17;12.27;;;5.18;;
76693;SDS011;69667;52.136;5.424;2023-10-09T05:05:25;8.07;;;3.67;;
76693;SDS011;69667;52.136;5.424;2023-10-09T05:08:11;6.82;;;3.75;;
76693;SDS011;69667;52.136;5.424;2023-10-09T05:10:46;12.07;;;4.05;;
76693;SDS011;69667;52.136;5.424;2023-10-09T05:13:28;7.30;;;3.50;;
76693;SDS011;69667;52.136;5.424;2023-10-09T05:16:11;7.63;;;3.38;;
76693;SDS011;69667;52.136;5.424;2023-10-09T05:18:53;6.65;;;3.33;;
76693;SDS011;69667;52.136;5.424;2023-10-09T05:21:28;9.80;;;4.32;;
76693;SDS011;69667;52.136;5.424;2023-10-09T05:23:59;8.27;;;3.83;;
76693;SDS011;69667;52.136;5.424;2023-10-09T05:29:18;10.35;;;3.85;;
76693;SDS011;69667;52.136;5.424;2023-10-09T05:34:41;9.23;;;3.28;;
76693;SDS011;69667;52.136;5.424;2023-10-09T05:37:31;7.43;;;2.65;;
76693;SDS011;69667;52.136;5.424;2023-10-09T05:40:05;5.53;;;2.67;;
76693;SDS011;69667;52.136;5.424;2023-10-09T05:42:43;7.30;;;3.50;;
76693;SDS011;69667;52.136;5.424;2023-10-09T05:45:13;6.85;;;3.25;;
76693;SDS011;69667;52.136;5.424;2023-10-09T05:50:20;5.13;;;2.75;;
76693;SDS011;69667;52.136;5.424;2023-10-09T05:52:53;8.27;;;2.95;;
76693;SDS011;69667;52.136;5.424;2023-10-09T05:55:23;13.43;;;3.78;;
76693;SDS011;69667;52.136;5.424;2023-10-09T05:57:52;7.45;;;2.88;;
76693;SDS011;69667;52.136;5.424;2023-10-09T06:00:40;8.88;;;3.08;;
76693;SDS011;69667;52.136;5.424;2023-10-09T06:03:27;7.57;;;3.17;;
76693;SDS011;69667;52.136;5.424;2023-10-09T06:06:14;7.78;;;3.08;;
76693;SDS011;69667;52.136;5.424;2023-10-09T06:09:01;6.90;;;2.72;;
76693;SDS011;69667;52.136;5.424;2023-10-09T06:11:43;8.45;;;3.22;;
76693;SDS011;69667;52.136;5.424;2023-10-09T06:14:16;6.57;;;3.00;;
76693;SDS011;69667;52.136;5.424;2023-10-09T06:16:57;7.03;;;3.03;;
76693;SDS011;69667;52.136;5.424;2023-10-09T06:19:44;8.38;;;2.80;;
76693;SDS011;69667;52.136;5.424;2023-10-09T06:22:15;7.20;;;2.97;;
76693;SDS011;69667;52.136;5.424;2023-10-09T06:25:02;7.25;;;3.25;;
76693;SDS011;69667;52.136;5.424;2023-10-09T06:27:38;6.15;;;2.83;;
76693;SDS011;69667;52.136;5.424;2023-10-09T06:30:10;6.82;;;3.03;;
76693;SDS011;69667;52.136;5.424;2023-10-09T06:32:50;8.43;;;3.35;;
76693;SDS011;69667;52.136;5.424;2023-10-09T06:35:37;7.45;;;3.13;;
76693;SDS011;69667;52.136;5.424;2023-10-09T06:38:06;5.43;;;2.63;;
76693;SDS011;69667;52.136;5.424;2023-10-09T06:40:49;7.20;;;3.15;;
76693;SDS011;69667;52.136;5.424;2023-10-09T06:43:19;6.63;;;2.83;;
76693;SDS011;69667;52.136;5.424;2023-10-09T06:45:50;6.82;;;2.95;;
76693;SDS011;69667;52.136;5.424;2023-10-09T06:48:25;8.02;;;2.85;;
76693;SDS011;69667;52.136;5.424;2023-10-09T06:51:07;7.32;;;3.08;;
76693;SDS011;69667;52.136;5.424;2023-10-09T06:53:42;6.70;;;2.92;;
76693;SDS011;69667;52.136;5.424;2023-10-09T06:56:26;8.10;;;2.78;;
76693;SDS011;69667;52.136;5.424;2023-10-09T06:58:59;9.00;;;2.90;;
76693;SDS011;69667;52.136;5.424;2023-10-09T07:01:51;8.95;;;2.80;;
76693;SDS011;69667;52.136;5.424;2023-10-09T07:04:39;5.88;;;2.72;;
76693;SDS011;69667;52.136;5.424;2023-10-09T07:09:40;8.50;;;3.10;;
76693;SDS011;69667;52.136;5.424;2023-10-09T07:12:34;9.07;;;2.78;;
76693;SDS011;69667;52.136;5.424;2023-10-09T07:15:10;6.20;;;3.00;;
76693;SDS011;69667;52.136;5.424;2023-10-09T07:17:39;7.05;;;2.95;;
76693;SDS011;69667;52.136;5.424;2023-10-09T07:20:07;6.80;;;3.33;;
76693;SDS011;69667;52.136;5.424;2023-10-09T07:23:02;8.07;;;3.22;;
76693;SDS011;69667;52.136;5.424;2023-10-09T07:25:44;6.82;;;3.08;;
76693;SDS011;69667;52.136;5.424;2023-10-09T07:28:22;6.75;;;2.80;;
76693;SDS011;69667;52.136;5.424;2023-10-09T07:31:04;7.20;;;3.70;;
76693;SDS011;69667;52.136;5.424;2023-10-09T07:33:37;7.07;;;3.13;;
76693;SDS011;69667;52.136;5.424;2023-10-09T07:36:38;10.68;;;3.45;;
76693;SDS011;69667;52.136;5.424;2023-10-09T07:39:08;7.05;;;3.05;;
76693;SDS011;69667;52.136;5.424;2023-10-09T07:41:44;6.35;;;3.10;;
76693;SDS011;69667;52.136;5.424;2023-10-09T07:44:23;7.75;;;3.15;;
76693;SDS011;69667;52.136;5.424;2023-10-09T07:47:06;6.97;;;2.92;;
76693;SDS011;69667;52.136;5.424;2023-10-09T07:49:44;6.35;;;2.97;;
76693;SDS011;69667;52.136;5.424;2023-10-09T07:52:18;6.72;;;2.88;;
76693;SDS011;69667;52.136;5.424;2023-10-09T07:54:50;7.72;;;3.30;;
76693;SDS011;69667;52.136;5.424;2023-10-09T07:57:21;6.88;;;2.95;;
76693;SDS011;69667;52.136;5.424;2023-10-09T07:59:56;6.80;;;3.25;;
76693;SDS011;69667;52.136;5.424;2023-10-09T08:02:39;6.57;;;3.08;;
76693;SDS011;69667;52.136;5.424;2023-10-09T08:05:08;7.05;;;3.25;;
76693;SDS011;69667;52.136;5.424;2023-10-09T08:07:46;8.00;;;3.38;;
76693;SDS011;69667;52.136;5.424;2023-10-09T08:11:06;8.35;;;2.97;;
76693;SDS011;69667;52.136;5.424;2023-10-09T08:13:54;6.45;;;3.47;;
76693;SDS011;69667;52.136;5.424;2023-10-09T08:16:37;10.10;;;3.50;;
76693;SDS011;69667;52.136;5.424;2023-10-09T08:19:05;5.00;;;2.72;;
76693;SDS011;69667;52.136;5.424;2023-10-09T08:21:56;9.27;;;3.25;;
76693;SDS011;69667;52.136;5.424;2023-10-09T08:24:44;11.50;;;4.10;;
76693;SDS011;69667;52.136;5.424;2023-10-09T08:27:26;8.50;;;3.25;;
76693;SDS011;69667;52.136;5.424;2023-10-09T08:29:59;10.35;;;3.10;;
76693;SDS011;69667;52.136;5.424;2023-10-09T08:35:32;6.68;;;3.35;;
76693;SDS011;69667;52.136;5.424;2023-10-09T08:38:03;7.78;;;3.40;;
76693;SDS011;69667;52.136;5.424;2023-10-09T08:43:12;10.57;;;3.13;;
76693;SDS011;69667;52.136;5.424;2023-10-09T08:45:50;6.10;;;2.85;;
76693;SDS011;69667;52.136;5.424;2023-10-09T08:48:28;7.50;;;2.67;;
76693;SDS011;69667;52.136;5.424;2023-10-09T08:50:57;9.57;;;2.75;;
76693;SDS011;69667;52.136;5.424;2023-10-09T08:53:27;8.75;;;3.13;;
76693;SDS011;69667;52.136;5.424;2023-10-09T08:55:55;6.40;;;2.63;;
76693;SDS011;69667;52.136;5.424;2023-10-09T08:58:24;6.15;;;3.40;;
76693;SDS011;69667;52.136;5.424;2023-10-09T09:01:04;7.00;;;2.75;;
76693;SDS011;69667;52.136;5.424;2023-10-09T09:03:39;10.50;;;3.58;;
76693;SDS011;69667;52.136;5.424;2023-10-09T09:06:10;5.55;;;2.63;;
76693;SDS011;69667;52.136;5.424;2023-10-09T09:08:42;8.60;;;4.55;;
76693;SDS011;69667;52.136;5.424;2023-10-09T09:11:15;7.93;;;3.03;;
76693;SDS011;69667;52.136;5.424;2023-10-09T09:13:45;10.70;;;3.40;;
76693;SDS011;69667;52.136;5.424;2023-10-09T09:16:40;13.63;;;3.17;;
76693;SDS011;69667;52.136;5.424;2023-10-09T09:19:15;10.85;;;3.35;;
76693;SDS011;69667;52.136;5.424;2023-10-09T09:21:50;5.93;;;2.85;;
76693;SDS011;69667;52.136;5.424;2023-10-09T09:24:23;10.90;;;3.30;;
76693;SDS011;69667;52.136;5.424;2023-10-09T09:27:02;7.28;;;2.70;;
76693;SDS011;69667;52.136;5.424;2023-10-09T09:29:40;4.57;;;2.33;;
76693;SDS011;69667;52.136;5.424;2023-10-09T09:32:15;6.30;;;2.50;;
76693;SDS011;69667;52.136;5.424;2023-10-09T09:34:48;5.40;;;2.50;;
76693;SDS011;69667;52.136;5.424;2023-10-09T09:37:22;4.47;;;2.30;;
76693;SDS011;69667;52.136;5.424;2023-10-09T09:40:17;5.00;;;2.88;;
76693;SDS011;69667;52.136;5.424;2023-10-09T09:43:01;8.63;;;2.95;;
76693;SDS011;69667;52.136;5.424;2023-10-09T09:45:37;5.70;;;3.00;;
76693;SDS011;69667;52.136;5.424;2023-10-09T09:48:13;10.65;;;2.40;;
76693;SDS011;69667;52.136;5.424;2023-10-09T09:50:44;7.10;;;2.83;;
76693;SDS011;69667;52.136;5.424;2023-10-09T09:53:14;8.40;;;3.30;;
76693;SDS011;69667;52.136;5.424;2023-10-09T09:55:52;6.28;;;2.88;;
76693;SDS011;69667;52.136;5.424;2023-10-09T09:58:25;6.78;;;2.67;;
76693;SDS011;69667;52.136;5.424;2023-10-09T10:01:03;7.35;;;2.97;;
76693;SDS011;69667;52.136;5.424;2023-10-09T10:03:56;6.22;;;2.50;;
76693;SDS011;69667;52.136;5.424;2023-10-09T10:06:28;5.20;;;2.53;;
76693;SDS011;69667;52.136;5.424;2023-10-09T10:08:59;6.97;;;2.67;;
76693;SDS011;69667;52.136;5.424;2023-10-09T10:11:44;6.10;;;2.50;;
76693;SDS011;69667;52.136;5.424;2023-10-09T10:14:19;7.00;;;2.65;;
76693;SDS011;69667;52.136;5.424;2023-10-09T10:22:31;8.52;;;2.88;;
76693;SDS011;69667;52.136;5.424;2023-10-09T10:25:04;7.25;;;3.15;;
76693;SDS011;69667;52.136;5.424;2023-10-09T10:27:36;11.80;;;3.28;;
76693;SDS011;69667;52.136;5.424;2023-10-09T10:30:28;8.40;;;3.30;;
76693;SDS011;69667;52.136;5.424;2023-10-09T10:33:01;6.13;;;2.50;;
76693;SDS011;69667;52.136;5.424;2023-10-09T10:38:31;6.60;;;2.88;;
76693;SDS011;69667;52.136;5.424;2023-10-09T10:41:10;5.32;;;2.47;;
76693;SDS011;69667;52.136;5.424;2023-10-09T10:43:49;5.78;;;2.88;;
76693;SDS011;69667;52.136;5.424;2023-10-09T10:46:21;4.35;;;2.33;;
76693;SDS011;69667;52.136;5.424;2023-10-09T10:48:50;7.35;;;3.08;;
76693;SDS011;69667;52.136;5.424;2023-10-09T10:51:26;9.18;;;3.03;;
76693;SDS011;69667;52.136;5.424;2023-10-09T10:54:07;7.03;;;2.35;;
76693;SDS011;69667;52.136;5.424;2023-10-09T10:56:55;9.50;;;2.72;;
76693;SDS011;69667;52.136;5.424;2023-10-09T10:59:25;6.55;;;2.13;;
76693;SDS011;69667;52.136;5.424;2023-10-09T11:02:09;5.60;;;2.50;;
76693;SDS011;69667;52.136;5.424;2023-10-09T11:04:39;8.18;;;2.92;;
76693;SDS011;69667;52.136;5.424;2023-10-09T11:07:11;5.97;;;2.13;;
76693;SDS011;69667;52.136;5.424;2023-10-09T11:09:46;6.60;;;2.60;;
76693;SDS011;69667;52.136;5.424;2023-10-09T11:12:31;9.88;;;3.00;;
76693;SDS011;69667;52.136;5.424;2023-10-09T11:15:12;4.65;;;2.30;;
76693;SDS011;69667;52.136;5.424;2023-10-09T11:20:43;5.75;;;2.75;;
76693;SDS011;69667;52.136;5.424;2023-10-09T11:23:31;9.23;;;2.85;;
76693;SDS011;69667;52.136;5.424;2023-10-09T11:26:03;5.70;;;2.78;;
76693;SDS011;69667;52.136;5.424;2023-10-09T11:32:01;4.63;;;2.30;;
76693;SDS011;69667;52.136;5.424;2023-10-09T11:34:32;6.15;;;2.53;;
76693;SDS011;69667;52.136;5.424;2023-10-09T11:39:39;6.75;;;2.72;;
76693;SDS011;69667;52.136;5.424;2023-10-09T11:45:25;7.07;;;2.30;;
76693;SDS011;69667;52.136;5.424;2023-10-09T11:48:17;7.15;;;2.53;;
76693;SDS011;69667;52.136;5.424;2023-10-09T11:51:00;9.05;;;3.05;;
76693;SDS011;69667;52.136;5.424;2023-10-09T11:53:40;4.97;;;2.28;;
76693;SDS011;69667;52.136;5.424;2023-10-09T11:56:21;6.05;;;2.63;;
76693;SDS011;69667;52.136;5.424;2023-10-09T11:58:54;8.18;;;2.90;;
76693;SDS011;69667;52.136;5.424;2023-10-09T12:01:26;4.82;;;2.22;;
76693;SDS011;69667;52.136;5.424;2023-10-09T12:04:02;5.10;;;2.58;;
76693;SDS011;69667;52.136;5.424;2023-10-09T12:06:30;4.93;;;2.13;;
76693;SDS011;69667;52.136;5.424;2023-10-09T12:08:59;9.45;;;2.85;;
76693;SDS011;69667;52.136;5.424;2023-10-09T12:11:28;7.20;;;2.50;;
76693;SDS011;69667;52.136;5.424;2023-10-09T12:16:32;5.63;;;2.40;;
76693;SDS011;69667;52.136;5.424;2023-10-09T12:19:00;4.95;;;2.50;;
76693;SDS011;69667;52.136;5.424;2023-10-09T12:21:29;6.90;;;2.90;;
76693;SDS011;69667;52.136;5.424;2023-10-09T12:23:57;6.68;;;2.78;;
76693;SDS011;69667;52.136;5.424;2023-10-09T12:26:39;8.77;;;2.55;;
76693;SDS011;69667;52.136;5.424;2023-10-09T12:29:09;6.13;;;2.55;;
76693;SDS011;69667;52.136;5.424;2023-10-09T12:31:38;6.90;;;2.35;;
76693;SDS011;69667;52.136;5.424;2023-10-09T12:36:35;6.90;;;2.65;;
76693;SDS011;69667;52.136;5.424;2023-10-09T12:39:04;5.88;;;2.55;;
76693;SDS011;69667;52.136;5.424;2023-10-09T12:44:02;8.40;;;2.60;;
76693;SDS011;69667;52.136;5.424;2023-10-09T12:46:31;5.40;;;2.42;;
76693;SDS011;69667;52.136;5.424;2023-10-09T12:49:05;5.30;;;2.47;;
76693;SDS011;69667;52.136;5.424;2023-10-09T12:54:12;5.13;;;1.90;;
76693;SDS011;69667;52.136;5.424;2023-10-09T12:56:41;7.05;;;2.45;;
76693;SDS011;69667;52.136;5.424;2023-10-09T12:59:10;4.72;;;2.10;;
76693;SDS011;69667;52.136;5.424;2023-10-09T13:01:42;8.35;;;3.08;;
76693;SDS011;69667;52.136;5.424;2023-10-09T13:04:11;11.02;;;2.92;;
76693;SDS011;69667;52.136;5.424;2023-10-09T13:06:43;5.32;;;2.58;;
76693;SDS011;69667;52.136;5.424;2023-10-09T13:09:16;4.35;;;2.15;;
76693;SDS011;69667;52.136;5.424;2023-10-09T13:12:37;4.68;;;2.25;;
76693;SDS011;69667;52.136;5.424;2023-10-09T13:15:09;3.83;;;2.58;;
76693;SDS011;69667;52.136;5.424;2023-10-09T13:17:38;4.63;;;1.98;;
76693;SDS011;69667;52.136;5.424;2023-10-09T13:20:08;5.63;;;2.58;;
76693;SDS011;69667;52.136;5.424;2023-10-09T13:22:40;13.00;;;2.70;;
76693;SDS011;69667;52.136;5.424;2023-10-09T13:25:09;6.80;;;2.08;;
76693;SDS011;69667;52.136;5.424;2023-10-09T13:28:01;7.05;;;2.70;;
76693;SDS011;69667;52.136;5.424;2023-10-09T13:30:31;5.53;;;2.60;;
76693;SDS011;69667;52.136;5.424;2023-10-09T13:33:07;3.38;;;2.08;;
76693;SDS011;69667;52.136;5.424;2023-10-09T13:38:17;6.47;;;2.47;;
76693;SDS011;69667;52.136;5.424;2023-10-09T13:40:46;5.03;;;2.45;;
76693;SDS011;69667;52.136;5.424;2023-10-09T13:43:16;5.07;;;1.90;;
76693;SDS011;69667;52.136;5.424;2023-10-09T13:45:44;7.68;;;2.55;;
76693;SDS011;69667;52.136;5.424;2023-10-09T13:48:17;8.25;;;2.40;;
76693;SDS011;69667;52.136;5.424;2023-10-09T13:50:48;7.22;;;2.70;;
76693;SDS011;69667;52.136;5.424;2023-10-09T13:53:18;7.88;;;2.38;;
76693;SDS011;69667;52.136;5.424;2023-10-09T13:55:46;5.07;;;2.10;;
76693;SDS011;69667;52.136;5.424;2023-10-09T13:58:15;7.40;;;2.53;;
76693;SDS011;69667;52.136;5.424;2023-10-09T14:00:48;6.50;;;2.25;;
76693;SDS011;69667;52.136;5.424;2023-10-09T14:03:20;9.50;;;2.95;;
76693;SDS011;69667;52.136;5.424;2023-10-09T14:05:50;8.27;;;3.08;;
76693;SDS011;69667;52.136;5.424;2023-10-09T14:08:21;4.78;;;2.40;;
76693;SDS011;69667;52.136;5.424;2023-10-09T14:10:50;6.25;;;2.30;;
76693;SDS011;69667;52.136;5.424;2023-10-09T14:13:18;7.57;;;2.88;;
76693;SDS011;69667;52.136;5.424;2023-10-09T14:15:56;5.88;;;2.00;;
76693;SDS011;69667;52.136;5.424;2023-10-09T14:18:27;5.10;;;2.60;;
76693;SDS011;69667;52.136;5.424;2023-10-09T14:21:00;6.88;;;2.90;;
76693;SDS011;69667;52.136;5.424;2023-10-09T14:23:32;5.80;;;2.05;;
76693;SDS011;69667;52.136;5.424;2023-10-09T14:26:02;6.80;;;2.20;;
76693;SDS011;69667;52.136;5.424;2023-10-09T14:28:33;7.13;;;2.63;;
76693;SDS011;69667;52.136;5.424;2023-10-09T14:31:01;6.25;;;3.13;;
76693;SDS011;69667;52.136;5.424;2023-10-09T14:33:31;6.93;;;2.78;;
76693;SDS011;69667;52.136;5.424;2023-10-09T14:36:04;5.05;;;2.13;;
76693;SDS011;69667;52.136;5.424;2023-10-09T14:38:33;7.90;;;2.78;;
76693;SDS011;69667;52.136;5.424;2023-10-09T14:41:06;7.82;;;2.70;;
76693;SDS011;69667;52.136;5.424;2023-10-09T14:43:39;6.70;;;2.38;;
76693;SDS011;69667;52.136;5.424;2023-10-09T14:46:12;5.47;;;2.33;;
76693;SDS011;69667;52.136;5.424;2023-10-09T14:48:41;12.02;;;3.08;;
76693;SDS011;69667;52.136;5.424;2023-10-09T14:51:13;7.18;;;2.70;;
76693;SDS011;69667;52.136;5.424;2023-10-09T14:53:41;8.65;;;2.78;;
76693;SDS011;69667;52.136;5.424;2023-10-09T14:56:11;6.30;;;2.42;;
76693;SDS011;69667;52.136;5.424;2023-10-09T14:58:43;4.60;;;2.20;;
76693;SDS011;69667;52.136;5.424;2023-10-09T15:01:14;6.75;;;2.90;;
76693;SDS011;69667;52.136;5.424;2023-10-09T15:03:46;5.45;;;2.53;;
76693;SDS011;69667;52.136;5.424;2023-10-09T15:06:16;8.10;;;3.22;;
76693;SDS011;69667;52.136;5.424;2023-10-09T15:08:45;7.50;;;2.85;;
76693;SDS011;69667;52.136;5.424;2023-10-09T15:13:42;5.60;;;2.63;;
76693;SDS011;69667;52.136;5.424;2023-10-09T15:16:10;7.82;;;3.40;;
76693;SDS011;69667;52.136;5.424;2023-10-09T15:18:38;5.97;;;3.20;;
76693;SDS011;69667;52.136;5.424;2023-10-09T15:21:06;8.38;;;3.25;;
76693;SDS011;69667;52.136;5.424;2023-10-09T15:23:35;7.50;;;2.35;;
76693;SDS011;69667;52.136;5.424;2023-10-09T15:26:04;7.25;;;2.58;;
76693;SDS011;69667;52.136;5.424;2023-10-09T15:28:34;9.93;;;2.78;;
76693;SDS011;69667;52.136;5.424;2023-10-09T15:33:38;5.28;;;2.78;;
76693;SDS011;69667;52.136;5.424;2023-10-09T15:36:13;8.80;;;2.90;;
76693;SDS011;69667;52.136;5.424;2023-10-09T15:38:44;13.52;;;3.38;;
76693;SDS011;69667;52.136;5.424;2023-10-09T15:41:12;6.95;;;2.50;;
76693;SDS011;69667;52.136;5.424;2023-10-09T15:43:43;4.22;;;2.20;;
76693;SDS011;69667;52.136;5.424;2023-10-09T15:46:12;6.25;;;2.40;;
76693;SDS011;69667;52.136;5.424;2023-10-09T15:48:42;13.15;;;3.13;;
76693;SDS011;69667;52.136;5.424;2023-10-09T15:51:13;9.10;;;2.65;;
76693;SDS011;69667;52.136;5.424;2023-10-09T15:53:43;5.47;;;2.72;;
76693;SDS011;69667;52.136;5.424;2023-10-09T15:56:12;7.78;;;2.95;;
76693;SDS011;69667;52.136;5.424;2023-10-09T15:58:45;8.18;;;3.42;;
76693;SDS011;69667;52.136;5.424;2023-10-09T16:01:13;5.07;;;2.30;;
76693;SDS011;69667;52.136;5.424;2023-10-09T16:03:46;6.38;;;2.70;;
76693;SDS011;69667;52.136;5.424;2023-10-09T16:06:15;7.97;;;2.90;;
76693;SDS011;69667;52.136;5.424;2023-10-09T16:08:46;8.43;;;2.75;;
76693;SDS011;69667;52.136;5.424;2023-10-09T16:11:21;5.15;;;2.20;;
76693;SDS011;69667;52.136;5.424;2023-10-09T16:13:53;5.57;;;2.78;;
76693;SDS011;69667;52.136;5.424;2023-10-09T16:16:25;6.32;;;2.55;;
76693;SDS011;69667;52.136;5.424;2023-10-09T16:18:56;3.88;;;2.38;;
76693;SDS011;69667;52.136;5.424;2023-10-09T16:21:25;5.40;;;2.72;;
76693;SDS011;69667;52.136;5.424;2023-10-09T16:23:54;8.55;;;2.45;;
76693;SDS011;69667;52.136;5.424;2023-10-09T16:26:22;6.00;;;2.30;;
76693;SDS011;69667;52.136;5.424;2023-10-09T16:28:51;6.50;;;2.50;;
76693;SDS011;69667;52.136;5.424;2023-10-09T16:31:20;8.77;;;3.00;;
76693;SDS011;69667;52.136;5.424;2023-10-09T16:33:50;5.70;;;3.08;;